Time;durP1;ratioP1;P1;durP2;ratioP2;P2;SDS_P1;SDS_P2;PMS_P1;PMS_P2;Temp;Humidity;BMP_temperature;BMP_pressure;BME280_temperature;BME280_humidity;BME280_pressure;Samples;Min_cycle;Max_cycle;Signal;HPM_P1;HPM_P2
2024/01/25 00:00:53;;;;;;;12.17;3.70;;;;;;;;;;5055264;28;20230;-91
2024/01/25 00:03:20;;;;;;;21.03;4.23;;;;;;;;;;5056086;28;20221;-91
2024/01/25 00:05:47;;;;;;;9.97;3.60;;;;;;;;;;5054435;28;20600;-91
2024/01/25 00:08:14;;;;;;;9.07;3.17;;;;;;;;;;5053838;28;20214;-91
2024/01/25 00:10:41;;;;;;;18.37;3.63;;;;;;;;;;5053631;28;20237;-90
2024/01/25 00:13:09;;;;;;;11.23;3.63;;;;;;;;;;5054334;28;20198;-92
2024/01/25 00:15:36;;;;;;;10.80;3.20;;;;;;;;;;5054152;28;20244;-91
2024/01/25 00:18:03;;;;;;;12.50;3.67;;;;;;;;;;5050888;28;20594;-90
2024/01/25 00:20:31;;;;;;;6.77;2.50;;;;;;;;;;5057030;28;20229;-91
2024/01/25 00:22:58;;;;;;;12.60;3.57;;;;;;;;;;5058413;28;20198;-90
2024/01/25 00:25:25;;;;;;;10.67;3.60;;;;;;;;;;5057153;28;20233;-91
2024/01/25 00:27:52;;;;;;;12.03;3.30;;;;;;;;;;5057675;28;20209;-91
2024/01/25 00:30:21;;;;;;;11.60;3.10;;;;;;;;;;5057141;28;20406;-91
2024/01/25 00:32:48;;;;;;;10.33;3.43;;;;;;;;;;5057615;28;20619;-91
2024/01/25 00:35:15;;;;;;;18.20;4.80;;;;;;;;;;5057273;28;20213;-91
2024/01/25 00:37:43;;;;;;;17.97;4.03;;;;;;;;;;5058045;28;20206;-92
2024/01/25 00:40:10;;;;;;;8.27;3.67;;;;;;;;;;5056858;28;20575;-90
2024/01/25 00:42:40;;;;;;;6.50;2.70;;;;;;;;;;5057359;28;20641;-92
2024/01/25 00:45:08;;;;;;;14.63;3.33;;;;;;;;;;5056685;28;20198;-91
2024/01/25 00:47:36;;;;;;;10.80;3.97;;;;;;;;;;5057169;28;20632;-91
2024/01/25 00:50:04;;;;;;;15.80;3.93;;;;;;;;;;5057649;28;20217;-90
2024/01/25 00:52:31;;;;;;;17.33;3.97;;;;;;;;;;5056819;28;20225;-91
2024/01/25 00:55:05;;;;;;;11.53;3.17;;;;;;;;;;5057507;28;20236;-91
2024/01/25 00:57:32;;;;;;;10.67;2.97;;;;;;;;;;5056844;28;20728;-91
2024/01/25 01:00:00;;;;;;;14.17;3.87;;;;;;;;;;5059518;28;20202;-90
2024/01/25 01:02:30;;;;;;;14.17;3.83;;;;;;;;;;5059347;28;20238;-91
2024/01/25 01:04:59;;;;;;;7.77;2.30;;;;;;;;;;5073591;28;20187;-90
2024/01/25 01:07:26;;;;;;;13.17;3.53;;;;;;;;;;5062700;28;20234;-91
2024/01/25 01:09:53;;;;;;;12.60;3.20;;;;;;;;;;5054358;28;20222;-91
2024/01/25 01:12:20;;;;;;;12.93;3.80;;;;;;;;;;5035793;28;20243;-90
2024/01/25 01:14:47;;;;;;;13.57;3.17;;;;;;;;;;5036949;28;20692;-91
2024/01/25 01:17:15;;;;;;;11.20;3.43;;;;;;;;;;5048144;28;20230;-90
2024/01/25 01:19:42;;;;;;;16.30;3.17;;;;;;;;;;5055239;28;20232;-91
2024/01/25 01:22:10;;;;;;;9.73;3.30;;;;;;;;;;5059600;28;20712;-91
2024/01/25 01:24:37;;;;;;;16.07;2.97;;;;;;;;;;5062853;28;20213;-91
2024/01/25 01:27:04;;;;;;;17.50;3.40;;;;;;;;;;5055480;28;20241;-91
2024/01/25 01:29:31;;;;;;;8.53;3.00;;;;;;;;;;5055746;28;20543;-90
2024/01/25 01:31:58;;;;;;;15.60;4.33;;;;;;;;;;5055766;28;20296;-91
2024/01/25 01:34:26;;;;;;;9.73;2.90;;;;;;;;;;5050211;28;20203;-90
2024/01/25 01:36:53;;;;;;;16.20;3.63;;;;;;;;;;5035517;28;20581;-90
2024/01/25 01:39:21;;;;;;;17.03;3.47;;;;;;;;;;5036249;28;20207;-91
2024/01/25 01:41:49;;;;;;;13.03;3.60;;;;;;;;;;5040929;28;20230;-90
2024/01/25 01:44:16;;;;;;;15.20;3.70;;;;;;;;;;5055476;28;20237;-89
2024/01/25 01:46:43;;;;;;;10.87;3.07;;;;;;;;;;5054514;28;20230;-90
2024/01/25 01:49:12;;;;;;;7.43;2.80;;;;;;;;;;5061806;28;20232;-91
2024/01/25 01:51:40;;;;;;;10.70;3.40;;;;;;;;;;5054731;28;20238;-90
2024/01/25 01:54:08;;;;;;;9.43;3.07;;;;;;;;;;5055505;28;20602;-91
2024/01/25 01:56:36;;;;;;;8.57;3.60;;;;;;;;;;5054667;28;20233;-90
2024/01/25 01:59:06;;;;;;;11.80;3.07;;;;;;;;;;5055058;28;20198;-90
2024/01/25 02:01:33;;;;;;;6.40;2.90;;;;;;;;;;5054537;28;20243;-91
2024/01/25 02:04:00;;;;;;;8.97;2.97;;;;;;;;;;5054400;28;20217;-91
2024/01/25 02:06:27;;;;;;;11.20;3.00;;;;;;;;;;5054058;28;20692;-91
2024/01/25 02:09:11;;;;;;;6.00;2.90;;;;;;;;;;5054776;28;20214;-91
2024/01/25 02:11:40;;;;;;;13.63;3.13;;;;;;;;;;5055593;28;20245;-91
2024/01/25 02:14:10;;;;;;;14.03;3.17;;;;;;;;;;5054939;28;20209;-91
2024/01/25 02:16:37;;;;;;;9.27;3.03;;;;;;;;;;5051224;28;20222;-91
2024/01/25 02:19:04;;;;;;;12.13;2.87;;;;;;;;;;5053544;28;20229;-90
2024/01/25 02:21:31;;;;;;;9.63;2.90;;;;;;;;;;5053880;28;20242;-91
2024/01/25 02:24:00;;;;;;;6.87;2.80;;;;;;;;;;5050702;28;20241;-91
2024/01/25 02:26:27;;;;;;;11.33;3.30;;;;;;;;;;5054130;28;20298;-91
2024/01/25 02:28:54;;;;;;;11.00;3.00;;;;;;;;;;5054679;28;20211;-91
2024/01/25 02:31:21;;;;;;;8.63;3.10;;;;;;;;;;5054487;28;20295;-91
2024/01/25 02:33:48;;;;;;;9.20;3.30;;;;;;;;;;5055122;28;20202;-90
2024/01/25 02:36:15;;;;;;;12.67;3.50;;;;;;;;;;5053903;28;20236;-90
2024/01/25 02:38:42;;;;;;;12.53;3.87;;;;;;;;;;5054675;28;20272;-91
2024/01/25 02:41:10;;;;;;;13.97;3.33;;;;;;;;;;5053296;28;20282;-90
2024/01/25 02:43:37;;;;;;;6.80;2.47;;;;;;;;;;5054363;28;20210;-91
2024/01/25 02:46:05;;;;;;;12.80;3.53;;;;;;;;;;5053915;28;20242;-91
2024/01/25 02:48:32;;;;;;;8.20;3.40;;;;;;;;;;5054080;28;20220;-91
2024/01/25 02:50:59;;;;;;;6.87;2.77;;;;;;;;;;5054231;28;20615;-90
2024/01/25 02:53:26;;;;;;;14.50;3.40;;;;;;;;;;5054645;28;20209;-91
2024/01/25 02:55:53;;;;;;;18.93;3.20;;;;;;;;;;5053726;28;20225;-91
2024/01/25 02:58:21;;;;;;;14.37;3.47;;;;;;;;;;5053846;28;20205;-90
2024/01/25 03:00:55;;;;;;;6.63;2.63;;;;;;;;;;5054819;28;20238;-90
2024/01/25 03:03:23;;;;;;;15.20;3.57;;;;;;;;;;5055584;28;20202;-91
2024/01/25 03:05:50;;;;;;;16.90;3.30;;;;;;;;;;5074274;28;20289;-89
2024/01/25 03:08:17;;;;;;;13.33;3.17;;;;;;;;;;5069267;28;20198;-90
2024/01/25 03:10:44;;;;;;;8.37;2.80;;;;;;;;;;5053839;28;20238;-91
2024/01/25 03:13:11;;;;;;;10.70;3.50;;;;;;;;;;5054061;28;20614;-90
2024/01/25 03:15:40;;;;;;;11.17;3.33;;;;;;;;;;5053654;28;20287;-91
2024/01/25 03:18:07;;;;;;;10.27;3.03;;;;;;;;;;5054093;28;20217;-90
2024/01/25 03:20:34;;;;;;;18.67;3.67;;;;;;;;;;5053206;28;20287;-90
2024/01/25 03:23:01;;;;;;;12.67;3.47;;;;;;;;;;5054011;28;20264;-91
2024/01/25 03:25:28;;;;;;;13.27;3.57;;;;;;;;;;5047824;28;20233;-91
2024/01/25 03:27:55;;;;;;;10.97;3.30;;;;;;;;;;5053970;28;20541;-90
2024/01/25 03:30:22;;;;;;;11.73;3.70;;;;;;;;;;5052846;28;20218;-91
2024/01/25 03:32:50;;;;;;;11.53;4.00;;;;;;;;;;5049378;28;20244;-91
2024/01/25 03:35:17;;;;;;;18.57;3.50;;;;;;;;;;5053402;28;20232;-90
2024/01/25 03:37:44;;;;;;;15.17;3.90;;;;;;;;;;5053904;28;20210;-91
2024/01/25 03:40:12;;;;;;;14.23;3.40;;;;;;;;;;5052852;28;20292;-90
2024/01/25 03:42:39;;;;;;;13.23;4.50;;;;;;;;;;5053870;28;20241;-91
2024/01/25 03:45:06;;;;;;;16.93;3.80;;;;;;;;;;5042554;28;20207;-89
2024/01/25 03:47:33;;;;;;;16.03;3.13;;;;;;;;;;5053449;28;20252;-90
2024/01/25 03:50:02;;;;;;;11.00;3.57;;;;;;;;;;5053605;28;20201;-91
2024/01/25 03:52:30;;;;;;;13.20;3.47;;;;;;;;;;5054853;28;20241;-91
2024/01/25 03:54:57;;;;;;;6.53;3.00;;;;;;;;;;5057495;28;20268;-90
2024/01/25 03:57:24;;;;;;;11.33;3.57;;;;;;;;;;5056763;28;20238;-91
2024/01/25 03:59:57;;;;;;;11.43;3.23;;;;;;;;;;5058574;28;20202;-91
2024/01/25 04:02:24;;;;;;;9.60;3.50;;;;;;;;;;5056569;28;20656;-91
2024/01/25 04:04:51;;;;;;;12.77;3.40;;;;;;;;;;5056938;28;20679;-90
2024/01/25 04:07:19;;;;;;;12.80;4.33;;;;;;;;;;5056905;28;20237;-91
2024/01/25 04:09:46;;;;;;;13.93;3.10;;;;;;;;;;5057370;28;20206;-91
2024/01/25 04:12:13;;;;;;;13.60;3.10;;;;;;;;;;5055980;28;20762;-91
2024/01/25 04:14:40;;;;;;;7.60;2.80;;;;;;;;;;5057347;28;20240;-91
2024/01/25 04:17:07;;;;;;;10.10;3.43;;;;;;;;;;5056450;28;20634;-91
2024/01/25 04:19:34;;;;;;;9.87;3.33;;;;;;;;;;5056699;28;20218;-91
2024/01/25 04:22:01;;;;;;;9.77;3.00;;;;;;;;;;5056926;28;20233;-91
2024/01/25 04:24:30;;;;;;;10.00;2.90;;;;;;;;;;5057443;28;20214;-90
2024/01/25 04:26:57;;;;;;;18.77;3.70;;;;;;;;;;5057763;28;20237;-91
2024/01/25 04:29:24;;;;;;;18.33;3.57;;;;;;;;;;5038513;28;20202;-91
2024/01/25 04:31:51;;;;;;;9.50;3.43;;;;;;;;;;5044043;28;20239;-90
2024/01/25 04:34:18;;;;;;;10.87;3.57;;;;;;;;;;5057539;28;20248;-91
2024/01/25 04:36:45;;;;;;;7.33;3.13;;;;;;;;;;5056622;28;20234;-91
2024/01/25 04:39:12;;;;;;;12.50;3.97;;;;;;;;;;5056725;28;20214;-91
2024/01/25 04:41:40;;;;;;;11.13;3.70;;;;;;;;;;5056454;28;20230;-91
2024/01/25 04:44:07;;;;;;;11.43;3.87;;;;;;;;;;5056738;28;20198;-91
2024/01/25 04:46:37;;;;;;;9.63;3.03;;;;;;;;;;5052622;28;20241;-91
2024/01/25 04:49:04;;;;;;;10.93;3.30;;;;;;;;;;5056601;28;20255;-92
2024/01/25 04:51:31;;;;;;;11.67;4.13;;;;;;;;;;5055854;28;20241;-91
2024/01/25 04:53:58;;;;;;;11.90;3.07;;;;;;;;;;5056587;28;20214;-91
2024/01/25 04:56:25;;;;;;;12.27;3.57;;;;;;;;;;5055368;28;20238;-91
2024/01/25 04:58:53;;;;;;;14.67;3.90;;;;;;;;;;5055965;28;20198;-91
2024/01/25 05:01:20;;;;;;;13.37;3.33;;;;;;;;;;5056787;28;20276;-91
2024/01/25 05:03:46;;;;;;;10.97;3.10;;;;;;;;;;5055849;28;20210;-91
2024/01/25 05:06:14;;;;;;;7.77;2.97;;;;;;;;;;5055928;28;20248;-91
2024/01/25 05:08:43;;;;;;;11.20;3.50;;;;;;;;;;5056420;28;20230;-91
2024/01/25 05:11:10;;;;;;;13.63;3.30;;;;;;;;;;5056012;28;20599;-91
2024/01/25 05:13:37;;;;;;;21.43;3.77;;;;;;;;;;5055847;28;20203;-91
2024/01/25 05:16:05;;;;;;;14.60;4.23;;;;;;;;;;5055454;28;20257;-91
2024/01/25 05:18:32;;;;;;;8.10;3.47;;;;;;;;;;5055109;28;20687;-91
2024/01/25 05:20:59;;;;;;;12.97;3.37;;;;;;;;;;5055127;28;20237;-91
2024/01/25 05:23:26;;;;;;;18.67;3.77;;;;;;;;;;5055609;28;20202;-90
2024/01/25 05:25:54;;;;;;;14.77;4.07;;;;;;;;;;5054991;28;20230;-91
2024/01/25 05:28:21;;;;;;;16.27;4.07;;;;;;;;;;5055170;28;20248;-91
2024/01/25 05:30:48;;;;;;;13.67;3.80;;;;;;;;;;5054884;28;20234;-91
2024/01/25 05:33:17;;;;;;;11.67;3.33;;;;;;;;;;5055301;28;20209;-90
2024/01/25 05:35:44;;;;;;;13.67;3.33;;;;;;;;;;5054791;28;20249;-91
2024/01/25 05:38:11;;;;;;;13.63;3.80;;;;;;;;;;5055484;28;20577;-91
2024/01/25 05:40:38;;;;;;;17.30;3.60;;;;;;;;;;5055467;28;20287;-91
2024/01/25 05:43:05;;;;;;;14.33;3.70;;;;;;;;;;5055504;28;20668;-90
2024/01/25 05:45:32;;;;;;;16.07;3.37;;;;;;;;;;5054973;28;20236;-90
2024/01/25 05:48:00;;;;;;;8.33;3.50;;;;;;;;;;5055424;28;20630;-90
2024/01/25 05:50:29;;;;;;;14.03;3.63;;;;;;;;;;5054749;28;20233;-91
2024/01/25 05:52:56;;;;;;;15.50;4.00;;;;;;;;;;5055023;28;20280;-91
2024/01/25 05:55:23;;;;;;;10.07;3.37;;;;;;;;;;5055742;28;20235;-90
2024/01/25 05:57:50;;;;;;;9.33;3.13;;;;;;;;;;5055042;28;20901;-91
2024/01/25 06:00:17;;;;;;;16.73;4.17;;;;;;;;;;5049969;28;20221;-90
2024/01/25 06:02:44;;;;;;;10.37;3.47;;;;;;;;;;5054309;28;20230;-91
2024/01/25 06:05:11;;;;;;;13.93;4.03;;;;;;;;;;5054356;28;20202;-91
2024/01/25 06:07:40;;;;;;;12.57;3.73;;;;;;;;;;5054522;28;20214;-90
2024/01/25 06:10:07;;;;;;;8.10;3.20;;;;;;;;;;5053905;28;20229;-88
2024/01/25 06:12:34;;;;;;;15.13;4.00;;;;;;;;;;5054394;28;20241;-89
2024/01/25 06:15:02;;;;;;;15.23;4.00;;;;;;;;;;5052734;28;20228;-89
2024/01/25 06:17:29;;;;;;;14.73;4.00;;;;;;;;;;5040677;28;20670;-89
2024/01/25 06:19:56;;;;;;;12.93;3.47;;;;;;;;;;5054430;28;20226;-89
2024/01/25 06:22:23;;;;;;;9.63;3.27;;;;;;;;;;5054090;28;20238;-89
2024/01/25 06:24:51;;;;;;;17.10;3.57;;;;;;;;;;5054360;28;20942;-89
2024/01/25 06:27:18;;;;;;;17.63;4.37;;;;;;;;;;5054388;28;20241;-89
2024/01/25 06:29:49;;;;;;;9.33;3.40;;;;;;;;;;5052594;28;20224;-90
2024/01/25 06:32:16;;;;;;;15.30;3.63;;;;;;;;;;5033735;28;20234;-89
2024/01/25 06:34:43;;;;;;;6.07;2.30;;;;;;;;;;5034180;28;20199;-89
2024/01/25 06:37:11;;;;;;;10.37;3.97;;;;;;;;;;5033950;28;20238;-89
2024/01/25 06:39:39;;;;;;;22.07;4.20;;;;;;;;;;5045261;28;20206;-90
2024/01/25 06:42:09;;;;;;;21.73;4.17;;;;;;;;;;5053481;28;20279;-90
2024/01/25 06:44:52;;;;;;;13.13;3.70;;;;;;;;;;5054549;28;20202;-90
2024/01/25 06:47:19;;;;;;;21.73;3.87;;;;;;;;;;5033545;28;20704;-90
2024/01/25 06:49:51;;;;;;;11.07;4.00;;;;;;;;;;5052960;28;20207;-91
2024/01/25 06:52:18;;;;;;;11.13;4.17;;;;;;;;;;5053395;28;20229;-90
2024/01/25 06:54:45;;;;;;;12.37;4.73;;;;;;;;;;5053933;28;20284;-91
2024/01/25 06:57:14;;;;;;;16.50;3.70;;;;;;;;;;5053539;28;20238;-91
2024/01/25 06:59:41;;;;;;;13.93;3.73;;;;;;;;;;5054491;28;20300;-89
2024/01/25 07:02:08;;;;;;;19.53;4.80;;;;;;;;;;5053354;28;20299;-89
2024/01/25 07:04:37;;;;;;;10.30;3.60;;;;;;;;;;5053696;28;20205;-91
2024/01/25 07:07:05;;;;;;;15.57;4.20;;;;;;;;;;5053206;28;20221;-90
2024/01/25 07:09:32;;;;;;;14.90;4.10;;;;;;;;;;5053417;28;20205;-89
2024/01/25 07:11:59;;;;;;;14.20;3.70;;;;;;;;;;5052987;28;20238;-89
2024/01/25 07:14:27;;;;;;;14.57;3.73;;;;;;;;;;5053369;28;20239;-89
2024/01/25 07:16:54;;;;;;;11.13;3.43;;;;;;;;;;5052907;28;20289;-89
2024/01/25 07:19:21;;;;;;;18.00;4.63;;;;;;;;;;5052994;28;20222;-88
2024/01/25 07:21:48;;;;;;;11.00;3.80;;;;;;;;;;5052725;28;20640;-88
2024/01/25 07:24:16;;;;;;;14.30;4.00;;;;;;;;;;5053387;28;20210;-88
2024/01/25 07:26:43;;;;;;;17.10;4.50;;;;;;;;;;5052349;28;20328;-89
2024/01/25 07:29:10;;;;;;;12.70;4.30;;;;;;;;;;5053363;28;20210;-89
2024/01/25 07:31:38;;;;;;;13.17;3.70;;;;;;;;;;5052486;28;20240;-89
2024/01/25 07:34:21;;;;;;;8.93;4.07;;;;;;;;;;5053637;28;20209;-90
2024/01/25 07:36:48;;;;;;;13.43;3.93;;;;;;;;;;5052484;28;20237;-89
2024/01/25 07:39:15;;;;;;;14.10;3.43;;;;;;;;;;5053417;28;20214;-89
2024/01/25 07:41:42;;;;;;;11.90;4.30;;;;;;;;;;5052673;28;20245;-89
2024/01/25 07:44:09;;;;;;;19.17;3.97;;;;;;;;;;5053457;28;20210;-89
2024/01/25 07:46:36;;;;;;;19.13;4.43;;;;;;;;;;5053126;28;20247;-90
2024/01/25 07:49:05;;;;;;;9.00;3.43;;;;;;;;;;5053180;28;20205;-90
2024/01/25 07:51:32;;;;;;;20.67;4.30;;;;;;;;;;5052586;28;20237;-90
2024/01/25 07:53:59;;;;;;;14.60;4.10;;;;;;;;;;5053661;28;20217;-91
2024/01/25 07:56:26;;;;;;;12.13;4.03;;;;;;;;;;5053053;28;20240;-90
2024/01/25 07:58:53;;;;;;;14.40;5.40;;;;;;;;;;5052561;28;20209;-87
2024/01/25 08:01:20;;;;;;;15.87;4.47;;;;;;;;;;5052179;28;20252;-86
2024/01/25 08:03:48;;;;;;;20.40;4.33;;;;;;;;;;5051333;28;20205;-86
2024/01/25 08:06:16;;;;;;;8.90;3.33;;;;;;;;;;5055174;28;20234;-88
2024/01/25 08:08:43;;;;;;;9.53;3.83;;;;;;;;;;5060605;28;20806;-91
2024/01/25 08:11:10;;;;;;;10.50;3.30;;;;;;;;;;5052261;28;20240;-88
2024/01/25 08:13:37;;;;;;;14.43;3.80;;;;;;;;;;5052364;28;20952;-89
2024/01/25 08:16:04;;;;;;;15.07;3.83;;;;;;;;;;5051469;28;20237;-90
2024/01/25 08:18:31;;;;;;;16.40;3.63;;;;;;;;;;5052014;28;20734;-87
2024/01/25 08:21:00;;;;;;;20.80;4.23;;;;;;;;;;5051219;28;20295;-90
2024/01/25 08:23:28;;;;;;;17.90;4.40;;;;;;;;;;5052291;28;20969;-89
2024/01/25 08:25:58;;;;;;;12.93;4.43;;;;;;;;;;5051466;28;20623;-88
2024/01/25 08:28:25;;;;;;;22.53;4.57;;;;;;;;;;5051599;28;20208;-88
2024/01/25 08:30:53;;;;;;;21.43;4.43;;;;;;;;;;5051373;28;20248;-88
2024/01/25 08:33:20;;;;;;;13.50;3.67;;;;;;;;;;5051385;28;20244;-88
2024/01/25 08:35:47;;;;;;;16.60;4.43;;;;;;;;;;5051255;28;20711;-88
2024/01/25 08:38:14;;;;;;;22.50;4.37;;;;;;;;;;5051201;28;20214;-89
2024/01/25 08:40:44;;;;;;;18.97;3.50;;;;;;;;;;5054662;28;20712;-88
2024/01/25 08:43:13;;;;;;;14.13;3.50;;;;;;;;;;5055750;28;20189;-88
2024/01/25 08:45:40;;;;;;;18.47;4.13;;;;;;;;;;5054911;28;20241;-87
2024/01/25 08:48:08;;;;;;;20.87;3.63;;;;;;;;;;5054779;28;20223;-88
2024/01/25 08:50:35;;;;;;;15.00;4.60;;;;;;;;;;5054725;28;20234;-88
2024/01/25 08:53:06;;;;;;;12.77;4.43;;;;;;;;;;5055258;28;20228;-88
2024/01/25 08:55:33;;;;;;;16.53;4.20;;;;;;;;;;5054755;28;20237;-88
2024/01/25 08:58:01;;;;;;;29.67;4.47;;;;;;;;;;5055419;28;20252;-88
2024/01/25 09:00:28;;;;;;;16.80;4.23;;;;;;;;;;5054223;28;20248;-87
2024/01/25 09:02:55;;;;;;;11.77;3.57;;;;;;;;;;5054635;28;20200;-87
2024/01/25 09:05:27;;;;;;;14.27;4.37;;;;;;;;;;5054227;28;20715;-88
2024/01/25 09:07:55;;;;;;;16.00;4.20;;;;;;;;;;5055086;28;20200;-87
2024/01/25 09:10:22;;;;;;;15.93;4.83;;;;;;;;;;5054213;28;20285;-88
2024/01/25 09:12:49;;;;;;;13.37;3.43;;;;;;;;;;5054410;28;20229;-86
2024/01/25 09:15:18;;;;;;;15.57;3.90;;;;;;;;;;5054537;28;20210;-88
2024/01/25 09:17:49;;;;;;;22.80;4.77;;;;;;;;;;5054797;28;20209;-88
2024/01/25 09:20:16;;;;;;;21.23;4.67;;;;;;;;;;5054079;28;20202;-88
2024/01/25 09:22:43;;;;;;;14.73;4.13;;;;;;;;;;5054739;28;20225;-89
2024/01/25 09:25:10;;;;;;;11.27;3.83;;;;;;;;;;5054137;28;20576;-87
2024/01/25 09:27:38;;;;;;;21.50;4.60;;;;;;;;;;5054748;28;20989;-87
2024/01/25 09:30:06;;;;;;;14.23;3.13;;;;;;;;;;5054299;28;20210;-88
2024/01/25 09:32:34;;;;;;;15.20;4.27;;;;;;;;;;5054821;28;20237;-89
2024/01/25 09:35:01;;;;;;;12.07;3.57;;;;;;;;;;5054571;28;20287;-88
2024/01/25 09:37:28;;;;;;;20.03;3.93;;;;;;;;;;5054519;28;20567;-88
2024/01/25 09:39:55;;;;;;;15.87;4.37;;;;;;;;;;5053914;28;20216;-88
2024/01/25 09:42:22;;;;;;;16.47;4.63;;;;;;;;;;5053845;28;20246;-89
2024/01/25 09:44:49;;;;;;;15.87;3.97;;;;;;;;;;5054607;28;20833;-87
2024/01/25 09:47:19;;;;;;;16.20;4.30;;;;;;;;;;5054331;28;20241;-89
2024/01/25 09:49:47;;;;;;;9.57;3.30;;;;;;;;;;5055112;28;20648;-89
2024/01/25 09:52:15;;;;;;;16.67;4.63;;;;;;;;;;5054446;28;20241;-88
2024/01/25 09:54:42;;;;;;;15.27;3.90;;;;;;;;;;5055020;28;20212;-89
2024/01/25 09:57:12;;;;;;;16.87;4.03;;;;;;;;;;5054334;28;20245;-89
2024/01/25 09:59:39;;;;;;;15.80;4.17;;;;;;;;;;5054967;28;20229;-90
2024/01/25 10:02:06;;;;;;;11.57;3.63;;;;;;;;;;5053130;28;20307;-85
2024/01/25 10:04:33;;;;;;;14.63;4.30;;;;;;;;;;5053534;28;20210;-85
2024/01/25 10:07:01;;;;;;;10.43;3.40;;;;;;;;;;5052483;28;20730;-85
2024/01/25 10:09:28;;;;;;;9.67;3.10;;;;;;;;;;5052800;28;20202;-86
2024/01/25 10:11:55;;;;;;;17.00;4.40;;;;;;;;;;5052165;28;20238;-85
2024/01/25 10:14:22;;;;;;;19.90;4.57;;;;;;;;;;5052363;28;20226;-85
2024/01/25 10:16:49;;;;;;;13.90;4.07;;;;;;;;;;5052631;28;20712;-89
2024/01/25 10:19:17;;;;;;;17.87;3.87;;;;;;;;;;5053762;28;20679;-87
2024/01/25 10:21:44;;;;;;;16.57;4.13;;;;;;;;;;5053209;28;20237;-88
2024/01/25 10:24:13;;;;;;;17.27;3.77;;;;;;;;;;5044396;28;20202;-89
2024/01/25 10:26:42;;;;;;;14.73;3.63;;;;;;;;;;5045346;28;20234;-89
2024/01/25 10:29:10;;;;;;;16.87;3.93;;;;;;;;;;5053354;28;20288;-87
2024/01/25 10:31:39;;;;;;;16.23;3.77;;;;;;;;;;5053413;28;20669;-88
2024/01/25 10:34:06;;;;;;;19.63;4.23;;;;;;;;;;5045302;28;20283;-88
2024/01/25 10:36:34;;;;;;;14.60;3.53;;;;;;;;;;5052678;28;20241;-83
2024/01/25 10:39:05;;;;;;;17.53;3.93;;;;;;;;;;5052367;28;20210;-88
2024/01/25 10:41:34;;;;;;;10.73;3.60;;;;;;;;;;5052753;28;20321;-90
2024/01/25 10:44:01;;;;;;;10.47;3.57;;;;;;;;;;5053370;28;20222;-90
2024/01/25 10:46:30;;;;;;;10.93;3.50;;;;;;;;;;5048981;28;20227;-90
2024/01/25 10:48:59;;;;;;;12.27;4.17;;;;;;;;;;5052107;28;20212;-89
2024/01/25 10:51:26;;;;;;;14.03;3.87;;;;;;;;;;5052270;28;20262;-90
2024/01/25 10:53:58;;;;;;;9.13;3.77;;;;;;;;;;5052854;28;20240;-90
2024/01/25 10:56:25;;;;;;;12.60;3.73;;;;;;;;;;5052008;28;20245;-89
2024/01/25 10:58:54;;;;;;;7.00;3.57;;;;;;;;;;5052951;28;20218;-89
2024/01/25 11:01:21;;;;;;;12.27;3.83;;;;;;;;;;5051830;28;20229;-89
2024/01/25 11:03:48;;;;;;;20.27;3.60;;;;;;;;;;5052213;28;20236;-88
2024/01/25 11:06:15;;;;;;;19.60;3.90;;;;;;;;;;5052139;28;20230;-88
2024/01/25 11:08:43;;;;;;;10.07;3.87;;;;;;;;;;5044038;28;20206;-86
2024/01/25 11:11:10;;;;;;;11.20;3.63;;;;;;;;;;5040278;28;20646;-88
2024/01/25 11:13:40;;;;;;;15.03;3.80;;;;;;;;;;5043120;28;20239;-86
2024/01/25 11:16:18;;;;;;;12.57;3.57;;;;;;;;;;5064134;28;20229;-87
2024/01/25 11:18:49;;;;;;;13.57;4.00;;;;;;;;;;5057180;28;20209;-86
2024/01/25 11:21:28;;;;;;;12.20;3.23;;;;;;;;;;5054989;28;20308;-87
2024/01/25 11:24:01;;;;;;;13.90;3.93;;;;;;;;;;5050856;28;20294;-86
2024/01/25 11:26:28;;;;;;;11.60;4.13;;;;;;;;;;5047296;28;20233;-89
2024/01/25 11:28:56;;;;;;;9.53;3.77;;;;;;;;;;5050396;28;20238;-84
2024/01/25 11:31:25;;;;;;;12.67;3.60;;;;;;;;;;5045525;28;20272;-87
2024/01/25 11:33:52;;;;;;;11.33;3.93;;;;;;;;;;5042307;28;20324;-85
2024/01/25 11:36:23;;;;;;;15.23;3.40;;;;;;;;;;5044516;28;20324;-85
2024/01/25 11:38:50;;;;;;;11.70;4.17;;;;;;;;;;5051018;28;20244;-85
2024/01/25 11:41:22;;;;;;;10.23;3.37;;;;;;;;;;5051172;28;20309;-88
2024/01/25 11:43:50;;;;;;;8.40;3.27;;;;;;;;;;5051957;28;20213;-84
2024/01/25 11:46:17;;;;;;;9.97;3.97;;;;;;;;;;5051363;28;20253;-88
2024/01/25 11:48:52;;;;;;;10.67;3.23;;;;;;;;;;5051751;28;20210;-87
2024/01/25 11:51:19;;;;;;;20.07;4.20;;;;;;;;;;5038787;28;20245;-91
2024/01/25 11:53:46;;;;;;;10.23;3.90;;;;;;;;;;5046984;28;20237;-82
2024/01/25 11:56:17;;;;;;;21.07;4.17;;;;;;;;;;5043241;28;20230;-84
2024/01/25 11:58:45;;;;;;;14.30;3.57;;;;;;;;;;5047332;28;20210;-85
2024/01/25 12:01:13;;;;;;;6.87;2.83;;;;;;;;;;5047174;28;20704;-83
2024/01/25 12:03:40;;;;;;;8.83;2.70;;;;;;;;;;5049054;28;20267;-89
2024/01/25 12:06:09;;;;;;;17.33;3.50;;;;;;;;;;5041807;28;20234;-88
2024/01/25 12:08:38;;;;;;;9.57;3.80;;;;;;;;;;5048689;28;20206;-90
2024/01/25 12:11:07;;;;;;;8.37;3.33;;;;;;;;;;5043764;28;20600;-88
2024/01/25 12:13:37;;;;;;;12.80;3.27;;;;;;;;;;5054147;28;20249;-88
2024/01/25 12:16:14;;;;;;;7.43;3.53;;;;;;;;;;5051429;28;20234;-88
2024/01/25 12:18:42;;;;;;;13.63;3.43;;;;;;;;;;5055370;28;20203;-88
2024/01/25 12:21:17;;;;;;;9.80;2.87;;;;;;;;;;5046383;28;20626;-89
2024/01/25 12:23:44;;;;;;;14.57;3.97;;;;;;;;;;5055698;28;20217;-88
2024/01/25 12:26:12;;;;;;;9.90;3.03;;;;;;;;;;5055019;28;20230;-90
2024/01/25 12:28:45;;;;;;;11.70;3.77;;;;;;;;;;5055936;28;20293;-91
2024/01/25 12:31:18;;;;;;;10.67;3.20;;;;;;;;;;5055075;28;20242;-88
2024/01/25 12:33:45;;;;;;;16.37;3.53;;;;;;;;;;5055326;28;20229;-88
2024/01/25 12:36:12;;;;;;;8.00;3.10;;;;;;;;;;5054232;28;20229;-88
2024/01/25 12:38:45;;;;;;;9.00;3.87;;;;;;;;;;5046974;28;20204;-88
2024/01/25 12:41:12;;;;;;;11.17;3.20;;;;;;;;;;5042870;28;20231;-90
2024/01/25 12:43:39;;;;;;;8.17;3.33;;;;;;;;;;5043723;28;20203;-90
2024/01/25 12:46:11;;;;;;;7.60;2.73;;;;;;;;;;5051300;28;20249;-92
2024/01/25 12:48:38;;;;;;;9.00;3.30;;;;;;;;;;5042803;28;20205;-91
2024/01/25 12:51:05;;;;;;;14.77;3.53;;;;;;;;;;5039164;28;20642;-91
2024/01/25 12:53:32;;;;;;;10.13;3.63;;;;;;;;;;5048595;28;20230;-89
2024/01/25 12:56:01;;;;;;;11.17;2.97;;;;;;;;;;5044435;28;20241;-87
2024/01/25 12:58:29;;;;;;;17.73;3.93;;;;;;;;;;5054012;28;20206;-86
2024/01/25 13:00:56;;;;;;;10.07;3.03;;;;;;;;;;5053262;28;20245;-88
2024/01/25 13:03:23;;;;;;;10.00;2.87;;;;;;;;;;5054019;28;20210;-87
2024/01/25 13:05:50;;;;;;;9.67;3.27;;;;;;;;;;5045934;28;20265;-88
2024/01/25 13:08:17;;;;;;;10.63;3.20;;;;;;;;;;5054216;28;20638;-88
2024/01/25 13:10:44;;;;;;;14.07;3.20;;;;;;;;;;5053807;28;20287;-88
2024/01/25 13:13:12;;;;;;;14.43;3.67;;;;;;;;;;5054387;28;20194;-89
2024/01/25 13:15:41;;;;;;;13.87;3.40;;;;;;;;;;5048365;28;20230;-88
2024/01/25 13:18:08;;;;;;;6.40;2.60;;;;;;;;;;5053685;28;20209;-88
2024/01/25 13:20:36;;;;;;;11.47;2.80;;;;;;;;;;5053236;28;20578;-89
2024/01/25 13:23:03;;;;;;;11.67;3.27;;;;;;;;;;5054163;28;20732;-89
2024/01/25 13:25:31;;;;;;;11.00;3.17;;;;;;;;;;5049554;28;20249;-88
2024/01/25 13:27:58;;;;;;;11.47;3.30;;;;;;;;;;5052165;28;20221;-89
2024/01/25 13:30:26;;;;;;;9.70;3.00;;;;;;;;;;5045152;28;20695;-87
2024/01/25 13:32:53;;;;;;;10.63;3.10;;;;;;;;;;5054082;28;20209;-88
2024/01/25 13:35:27;;;;;;;10.70;3.30;;;;;;;;;;5052213;28;20225;-88
2024/01/25 13:37:55;;;;;;;9.27;3.60;;;;;;;;;;5050713;28;20682;-88
2024/01/25 13:40:32;;;;;;;9.63;3.33;;;;;;;;;;5055340;28;21135;-88
2024/01/25 13:42:59;;;;;;;9.67;3.33;;;;;;;;;;5054568;28;20205;-90
2024/01/25 13:45:27;;;;;;;10.27;3.03;;;;;;;;;;5053447;28;20723;-90
2024/01/25 13:47:54;;;;;;;19.00;3.77;;;;;;;;;;5054692;28;20206;-91
2024/01/25 13:50:21;;;;;;;12.13;3.10;;;;;;;;;;5053776;28;20214;-90
2024/01/25 13:52:48;;;;;;;7.30;3.07;;;;;;;;;;5054754;28;20214;-88
2024/01/25 13:55:17;;;;;;;10.27;3.13;;;;;;;;;;5053978;28;20233;-91
2024/01/25 13:57:44;;;;;;;8.20;2.80;;;;;;;;;;5048038;28;20202;-83
2024/01/25 14:00:12;;;;;;;14.53;3.20;;;;;;;;;;5050907;28;20206;-83
2024/01/25 14:02:42;;;;;;;14.23;3.60;;;;;;;;;;5052012;28;20229;-83
2024/01/25 14:05:09;;;;;;;10.47;3.40;;;;;;;;;;5050813;28;20203;-83
2024/01/25 14:07:36;;;;;;;8.70;2.87;;;;;;;;;;5043442;28;20232;-83
2024/01/25 14:10:03;;;;;;;11.70;3.20;;;;;;;;;;5050610;28;20213;-84
2024/01/25 14:12:30;;;;;;;12.30;4.17;;;;;;;;;;5051928;28;20727;-83
2024/01/25 14:14:58;;;;;;;14.93;3.90;;;;;;;;;;5051253;28;20303;-88
2024/01/25 14:17:28;;;;;;;9.00;3.27;;;;;;;;;;5052188;28;20280;-86
2024/01/25 14:19:56;;;;;;;8.80;2.70;;;;;;;;;;5052111;28;20264;-87
2024/01/25 14:22:23;;;;;;;12.13;3.33;;;;;;;;;;5052074;28;20238;-87
2024/01/25 14:24:50;;;;;;;6.20;2.97;;;;;;;;;;5052240;28;20619;-87
2024/01/25 14:27:17;;;;;;;10.53;2.90;;;;;;;;;;5042650;28;20230;-87
2024/01/25 14:29:45;;;;;;;9.20;3.60;;;;;;;;;;5051084;28;20676;-88
2024/01/25 14:32:12;;;;;;;5.43;2.53;;;;;;;;;;5051556;28;20237;-88
2024/01/25 14:34:46;;;;;;;10.37;3.03;;;;;;;;;;5052919;28;20230;-89
2024/01/25 14:37:15;;;;;;;11.57;3.43;;;;;;;;;;5049710;28;20245;-90